Time;durP1;ratioP1;P1;durP2;ratioP2;P2;SDS_P1;SDS_P2;PMS_P1;PMS_P2;Temp;Humidity;BMP_temperature;BMP_pressure;BME280_temperature;BME280_humidity;BME280_pressure;Samples;Min_cycle;Max_cycle;Signal;HPM_P1;HPM_P2
2022/08/30 00:03:07;;;;;;;10.20;4.28;;;;;;;15.65;100.00;102318.22;7374822;19;20014;-75
2022/08/30 00:05:38;;;;;;;13.05;4.65;;;;;;;15.64;100.00;102316.44;7380446;19;20507;-74
2022/08/30 00:08:13;;;;;;;8.38;3.90;;;;;;;15.64;100.00;102315.56;7374363;19;20039;-74
2022/08/30 00:10:43;;;;;;;9.43;5.07;;;;;;;15.62;100.00;102307.59;7376514;19;20015;-75
2022/08/30 00:13:15;;;;;;;10.82;4.25;;;;;;;15.60;100.00;102309.31;7374857;19;20080;-75
2022/08/30 00:15:45;;;;;;;10.80;4.28;;;;;;;15.59;100.00;102304.03;7374572;19;20046;-75
2022/08/30 00:18:17;;;;;;;6.95;3.42;;;;;;;15.60;100.00;102305.81;7374251;19;20014;-75
2022/08/30 00:20:48;;;;;;;8.73;4.05;;;;;;;15.59;100.00;102309.31;7374252;19;20322;-75
2022/08/30 00:23:21;;;;;;;11.43;4.10;;;;;;;15.58;100.00;102296.97;7377859;19;20105;-73
2022/08/30 00:25:52;;;;;;;9.70;3.95;;;;;;;15.55;100.00;102300.41;7374459;19;20129;-74
2022/08/30 00:28:22;;;;;;;8.95;4.30;;;;;;;15.55;100.00;102304.81;7376366;19;20014;-73
2022/08/30 00:30:53;;;;;;;11.77;4.32;;;;;;;15.56;100.00;102309.25;7373812;19;20013;-73
2022/08/30 00:33:26;;;;;;;9.05;4.00;;;;;;;15.55;100.00;102305.72;7375300;19;20014;-73
2022/08/30 00:35:56;;;;;;;11.32;5.45;;;;;;;15.55;100.00;102312.75;7374809;19;20471;-72
2022/08/30 00:38:30;;;;;;;10.68;4.00;;;;;;;15.52;100.00;102307.41;7376783;19;20006;-72
2022/08/30 00:41:04;;;;;;;8.60;3.70;;;;;;;15.52;100.00;102312.72;7374359;19;20006;-72
2022/08/30 00:43:38;;;;;;;7.18;3.78;;;;;;;15.49;100.00;102307.38;7377623;19;20015;-73
2022/08/30 00:46:09;;;;;;;11.90;4.45;;;;;;;15.45;100.00;102306.44;7378639;19;20038;-72
2022/08/30 00:48:42;;;;;;;10.55;4.45;;;;;;;15.47;100.00;102306.44;7378878;19;20086;-72
2022/08/30 00:51:15;;;;;;;10.43;4.53;;;;;;;15.46;100.00;102308.19;7379252;19;20015;-72
2022/08/30 00:53:53;;;;;;;10.75;4.50;;;;;;;15.46;100.00;102307.31;7374875;19;20271;-72
2022/08/30 00:56:29;;;;;;;12.80;4.78;;;;;;;15.46;100.00;102309.97;7379680;19;20006;-75
2022/08/30 00:59:04;;;;;;;11.27;5.28;;;;;;;15.46;100.00;102309.97;7378386;19;20016;-75
2022/08/30 01:01:36;;;;;;;9.40;3.92;;;;;;;15.44;100.00;102311.69;7375713;19;20042;-75
2022/08/30 01:04:10;;;;;;;10.73;4.55;;;;;;;15.42;100.00;102305.50;7373768;19;20010;-75
2022/08/30 01:06:41;;;;;;;10.50;4.65;;;;;;;15.43;100.00;102300.22;7380274;19;20030;-75
2022/08/30 01:09:15;;;;;;;9.50;4.72;;;;;;;15.42;100.00;102310.78;7383601;19;20129;-75
2022/08/30 01:11:47;;;;;;;11.20;4.85;;;;;;;15.40;100.00;102307.22;7382681;19;20021;-75
2022/08/30 01:14:20;;;;;;;11.68;4.75;;;;;;;15.39;100.00;102311.59;7380459;19;20053;-72
2022/08/30 01:16:57;;;;;;;12.18;4.63;;;;;;;15.37;100.00;102308.06;7378651;19;20011;-73
2022/08/30 01:19:38;;;;;;;11.48;5.03;;;;;;;15.37;100.00;102314.22;7379753;19;20053;-72
2022/08/30 01:22:20;;;;;;;9.18;4.55;;;;;;;15.36;100.00;102319.50;7379547;19;20074;-73
2022/08/30 01:24:54;;;;;;;10.75;4.53;;;;;;;15.35;100.00;102318.59;7380824;19;20018;-73
2022/08/30 01:27:27;;;;;;;10.02;5.05;;;;;;;15.38;100.00;102321.28;7379306;19;20254;-72
2022/08/30 01:29:59;;;;;;;11.90;5.23;;;;;;;15.38;100.00;102329.22;7381781;19;20011;-73
2022/08/30 01:32:33;;;;;;;13.65;5.20;;;;;;;15.43;100.00;102318.72;7382501;19;20045;-73
2022/08/30 01:35:07;;;;;;;10.95;5.47;;;;;;;15.45;100.00;102322.28;7382958;19;20014;-72
2022/08/30 01:37:38;;;;;;;10.50;5.03;;;;;;;15.49;100.00;102320.59;7368357;19;20013;-73
2022/08/30 01:40:13;;;;;;;10.43;4.88;;;;;;;15.52;100.00;102318.00;7382298;19;20023;-72
2022/08/30 01:42:43;;;;;;;12.57;5.55;;;;;;;15.55;100.00;102313.66;7382714;19;20013;-72
2022/08/30 01:45:14;;;;;;;11.80;4.82;;;;;;;15.56;100.00;102311.88;7380657;19;20451;-72
2022/08/30 01:47:44;;;;;;;9.20;4.75;;;;;;;15.56;100.00;102314.53;7382592;19;20010;-72
2022/08/30 01:50:14;;;;;;;9.30;5.20;;;;;;;15.56;100.00;102306.59;7383255;19;20018;-72
2022/08/30 01:52:44;;;;;;;10.88;5.10;;;;;;;15.57;100.00;102311.06;7375563;19;20039;-72
2022/08/30 01:55:17;;;;;;;12.73;5.70;;;;;;;15.57;100.00;102306.66;7381905;19;20040;-72
2022/08/30 01:57:48;;;;;;;12.07;6.13;;;;;;;15.58;100.00;102302.25;7380177;19;20015;-72
2022/08/30 02:00:19;;;;;;;12.65;5.00;;;;;;;15.58;100.00;102307.56;7382533;19;20023;-73
2022/08/30 02:02:50;;;;;;;9.75;5.47;;;;;;;15.59;100.00;102306.69;7380434;19;20010;-72
2022/08/30 02:05:20;;;;;;;13.10;5.75;;;;;;;15.56;100.00;102309.25;7380846;19;20450;-74
2022/08/30 02:07:50;;;;;;;11.00;5.80;;;;;;;15.54;100.00;102313.63;7378494;19;20015;-73
2022/08/30 02:10:23;;;;;;;11.05;6.05;;;;;;;15.55;100.00;102312.75;7378724;19;20002;-73
2022/08/30 02:12:53;;;;;;;11.97;6.13;;;;;;;15.53;100.00;102314.47;7379001;19;20014;-74
2022/08/30 02:15:23;;;;;;;11.88;5.85;;;;;;;15.52;100.00;102308.31;7381172;19;20082;-71
2022/08/30 02:17:53;;;;;;;10.93;5.95;;;;;;;15.52;100.00;102308.31;7376221;19;20016;-72
2022/08/30 02:20:23;;;;;;;10.52;6.20;;;;;;;15.53;100.00;102315.38;7377839;19;20010;-73
2022/08/30 02:22:53;;;;;;;11.57;6.60;;;;;;;15.51;100.00;102313.56;7383245;19;20356;-75
2022/08/30 02:25:30;;;;;;;11.57;5.75;;;;;;;15.51;100.00;102318.84;7380183;19;20006;-75
2022/08/30 02:27:59;;;;;;;13.70;6.47;;;;;;;15.52;100.00;102315.34;7382524;19;20023;-75
2022/08/30 02:30:30;;;;;;;12.52;6.32;;;;;;;15.47;100.00;102314.38;7378713;19;20017;-74
2022/08/30 02:33:00;;;;;;;12.85;6.53;;;;;;;15.49;100.00;102313.53;7380237;19;20006;-75
2022/08/30 02:35:30;;;;;;;13.40;6.43;;;;;;;15.48;100.00;102316.16;7380234;19;20011;-76
2022/08/30 02:38:00;;;;;;;11.70;5.95;;;;;;;15.50;100.00;102304.75;7379282;19;20011;-75
2022/08/30 02:40:34;;;;;;;13.50;6.03;;;;;;;15.45;100.00;102305.53;7381277;19;20031;-74
2022/08/30 02:43:07;;;;;;;11.10;5.85;;;;;;;15.45;100.00;102297.59;7380340;19;20010;-74
2022/08/30 02:45:38;;;;;;;11.88;6.65;;;;;;;15.40;100.00;102301.94;7378948;19;20014;-75
2022/08/30 02:48:08;;;;;;;12.55;7.18;;;;;;;15.35;100.00;102300.09;7378421;19;20049;-72
2022/08/30 02:50:41;;;;;;;13.32;6.95;;;;;;;15.35;100.00;102300.09;7378857;19;20022;-72
2022/08/30 02:53:11;;;;;;;11.43;7.30;;;;;;;15.35;100.00;102294.81;7376753;19;20014;-72
2022/08/30 02:55:48;;;;;;;13.57;6.78;;;;;;;15.31;100.00;102298.25;7380821;19;20060;-72
2022/08/30 02:58:18;;;;;;;13.45;7.43;;;;;;;15.26;100.00;102294.66;7376372;19;20007;-72
2022/08/30 03:00:48;;;;;;;13.55;7.35;;;;;;;15.27;100.00;102300.81;7378440;19;20011;-72
2022/08/30 03:03:22;;;;;;;12.48;7.82;;;;;;;15.30;100.00;102295.59;7377849;19;20050;-71
2022/08/30 03:05:52;;;;;;;14.35;7.53;;;;;;;15.23;100.00;102297.25;7378289;19;20014;-71
2022/08/30 03:08:22;;;;;;;14.23;7.72;;;;;;;15.21;100.00;102295.44;7378707;19;20795;-71
2022/08/30 03:10:55;;;;;;;14.02;7.80;;;;;;;15.21;100.00;102295.44;7378983;19;20023;-73
2022/08/30 03:13:25;;;;;;;;;;;;;;;15.20;100.00;102294.53;7379680;19;20011;-71
2022/08/30 03:15:56;;;;;;;12.00;6.10;;;;;;;15.19;100.00;102287.47;7379202;19;19918;-71
2022/08/30 03:18:32;;;;;;;15.25;7.72;;;;;;;15.19;100.00;102289.22;7373369;19;20010;-71
2022/08/30 03:21:11;;;;;;;13.98;7.32;;;;;;;15.19;100.00;102282.19;7377759;19;20018;-75
2022/08/30 03:23:42;;;;;;;15.20;7.38;;;;;;;15.17;100.00;102286.56;7378838;19;20022;-75
2022/08/30 03:26:15;;;;;;;14.95;7.82;;;;;;;15.15;100.00;102285.66;7379681;19;20010;-74
2022/08/30 03:28:45;;;;;;;12.32;7.55;;;;;;;15.14;100.00;102275.94;7381847;19;20010;-76
2022/08/30 03:31:15;;;;;;;16.55;8.70;;;;;;;15.13;100.00;102276.81;7377766;19;20006;-76
2022/08/30 03:33:44;;;;;;;15.90;7.63;;;;;;;15.16;100.00;102274.22;7381024;19;20089;-76
2022/08/30 03:36:14;;;;;;;15.95;8.38;;;;;;;15.14;100.00;102273.28;7376105;19;20446;-72
2022/08/30 03:38:44;;;;;;;13.32;7.30;;;;;;;15.11;100.00;102280.28;7375467;19;20503;-72
2022/08/30 03:41:17;;;;;;;14.75;8.32;;;;;;;15.07;100.00;102271.41;7377325;19;20040;-73
2022/08/30 03:43:48;;;;;;;15.30;8.25;;;;;;;15.04;100.00;102276.63;7380483;19;20045;-72
2022/08/30 03:46:19;;;;;;;18.83;8.73;;;;;;;15.03;100.00;102285.44;7375372;19;20349;-72
2022/08/30 03:48:58;;;;;;;16.52;9.13;;;;;;;14.99;100.00;102273.03;7381964;19;20039;-74
2022/08/30 03:51:30;;;;;;;16.50;7.53;;;;;;;14.98;100.00;102279.16;7380894;19;20579;-75
2022/08/30 03:54:11;;;;;;;15.90;9.20;;;;;;;14.97;100.00;102270.34;7374391;19;20479;-74
2022/08/30 03:56:43;;;;;;;19.17;8.32;;;;;;;14.97;100.00;102269.47;7383128;19;20013;-74
2022/08/30 03:59:13;;;;;;;14.48;8.73;;;;;;;14.95;100.00;102272.09;7381144;19;20013;-71
2022/08/30 04:01:44;;;;;;;18.73;9.55;;;;;;;14.92;100.00;102272.03;7379828;19;20018;-74
2022/08/30 04:04:14;;;;;;;17.05;8.95;;;;;;;14.91;100.00;102272.00;7387496;19;20006;-75
2022/08/30 04:06:49;;;;;;;18.35;11.55;;;;;;;14.89;100.00;102271.06;7386595;19;20057;-75
2022/08/30 04:09:19;;;;;;;16.50;9.77;;;;;;;14.86;100.00;102271.03;7386304;19;20032;-75
2022/08/30 04:11:52;;;;;;;20.30;9.38;;;;;;;14.84;100.00;102272.75;7379596;19;20172;-71
2022/08/30 04:14:22;;;;;;;21.42;9.70;;;;;;;14.80;100.00;102273.56;7377249;19;20637;-71
2022/08/30 04:16:52;;;;;;;18.63;9.68;;;;;;;14.78;100.00;102267.34;7377055;19;20479;-71
2022/08/30 04:19:22;;;;;;;17.30;9.65;;;;;;;14.76;100.00;102271.72;7374331;19;20052;-73
2022/08/30 04:21:52;;;;;;;15.90;9.63;;;;;;;14.74;100.00;102266.41;7376124;19;20014;-75
2022/08/30 04:24:22;;;;;;;18.92;9.05;;;;;;;14.70;100.00;102265.44;7376713;19;20057;-76
2022/08/30 04:26:55;;;;;;;19.55;9.25;;;;;;;14.68;100.00;102266.28;7373031;19;20007;-75
2022/08/30 04:29:25;;;;;;;18.02;9.65;;;;;;;14.63;100.00;102260.03;7377049;19;20517;-75
2022/08/30 04:31:58;;;;;;;17.88;9.75;;;;;;;14.61;100.00;102274.94;7376501;19;20499;-75
2022/08/30 04:34:39;;;;;;;17.73;9.38;;;;;;;14.56;100.00;102281.91;7375879;19;20017;-77
2022/08/30 04:37:09;;;;;;;20.35;10.52;;;;;;;14.52;100.00;102280.97;7374144;19;20015;-75
2022/08/30 04:39:41;;;;;;;19.40;10.95;;;;;;;14.52;100.00;102288.00;7376727;19;20010;-75
2022/08/30 04:42:14;;;;;;;15.95;9.05;;;;;;;14.52;100.00;102291.53;7383428;19;20011;-75
2022/08/30 04:44:44;;;;;;;19.67;10.98;;;;;;;14.47;100.00;102287.00;7389302;19;20471;-74
2022/08/30 04:47:14;;;;;;;21.63;10.70;;;;;;;14.45;100.00;102292.25;7391065;19;20074;-77
2022/08/30 04:49:44;;;;;;;18.33;10.70;;;;;;;14.40;100.00;102289.50;7390296;19;20003;-75
2022/08/30 04:52:13;;;;;;;18.08;10.05;;;;;;;14.40;100.00;102291.25;7388406;19;20077;-75
2022/08/30 04:54:43;;;;;;;16.88;9.50;;;;;;;14.42;100.00;102293.94;7391283;19;20010;-76
2022/08/30 04:57:16;;;;;;;16.02;9.52;;;;;;;14.40;100.00;102307.09;7391770;19;20002;-75
2022/08/30 04:59:46;;;;;;;21.63;10.05;;;;;;;14.40;100.00;102307.09;7391386;19;20124;-75
2022/08/30 05:02:16;;;;;;;19.33;10.43;;;;;;;14.37;100.00;102307.91;7387670;19;20014;-76
2022/08/30 05:07:28;;;;;;;17.13;10.43;;;;;;;14.36;100.00;102311.41;7389653;19;20823;-75
2022/08/30 05:10:00;;;;;;;21.98;11.43;;;;;;;14.37;100.00;102322.84;7387971;19;20010;-75
2022/08/30 05:12:34;;;;;;;20.15;11.27;;;;;;;14.37;100.00;102317.56;7392349;19;20471;-77
2022/08/30 05:15:14;;;;;;;20.48;11.82;;;;;;;14.40;100.00;102317.63;7393001;19;20375;-74
2022/08/30 05:17:44;;;;;;;21.80;11.30;;;;;;;14.38;100.00;102314.97;7389954;19;20774;-75
2022/08/30 05:20:14;;;;;;;20.42;11.27;;;;;;;14.40;100.00;102321.16;7390313;19;20014;-74
2022/08/30 05:22:48;;;;;;;20.15;11.48;;;;;;;14.42;100.00;102318.59;7391526;19;20019;-73
2022/08/30 05:25:23;;;;;;;20.08;11.02;;;;;;;14.45;100.00;102323.94;7391749;19;20031;-75
2022/08/30 05:27:57;;;;;;;20.98;10.85;;;;;;;14.46;100.00;102317.81;7392801;19;20032;-75
2022/08/30 05:30:35;;;;;;;20.52;10.68;;;;;;;14.48;100.00;102326.66;7390715;19;20007;-75
2022/08/30 05:33:08;;;;;;;19.42;10.18;;;;;;;14.51;100.00;102320.53;7391764;19;20014;-75
2022/08/30 05:35:39;;;;;;;21.80;11.77;;;;;;;14.56;100.00;102316.25;7388639;19;20618;-75
2022/08/30 05:38:09;;;;;;;21.83;12.95;;;;;;;14.60;100.00;102318.06;7390083;19;20595;-76
2022/08/30 05:40:43;;;;;;;25.08;12.75;;;;;;;14.65;100.00;102324.31;7385754;19;20039;-76
2022/08/30 05:43:15;;;;;;;20.48;11.63;;;;;;;14.75;100.00;102326.28;7388514;19;20018;-72
2022/08/30 05:45:45;;;;;;;20.77;10.75;;;;;;;14.84;100.00;102320.28;7387694;19;20002;-72
2022/08/30 05:48:15;;;;;;;24.35;11.82;;;;;;;14.90;100.00;102321.28;7388614;19;20015;-73
2022/08/30 05:50:45;;;;;;;26.63;12.45;;;;;;;15.01;100.00;102324.13;7388908;19;20015;-72
2022/08/30 05:53:15;;;;;;;20.83;11.70;;;;;;;15.07;100.00;102326.91;7376121;19;20678;-72
2022/08/30 05:55:45;;;;;;;20.33;11.40;;;;;;;15.14;100.00;102323.50;7382105;19;20023;-72
2022/08/30 05:58:17;;;;;;;21.00;11.73;;;;;;;15.22;100.00;102335.09;7375704;19;20523;-72
2022/08/30 06:00:47;;;;;;;23.48;12.20;;;;;;;15.36;100.00;102333.59;7377146;19;20007;-72
2022/08/30 06:03:17;;;;;;;26.05;11.63;;;;;;;15.50;100.00;102340.88;7381016;19;20074;-71
2022/08/30 06:05:47;;;;;;;20.02;11.13;;;;;;;15.57;100.00;102332.22;7377106;19;20027;-72
2022/08/30 06:08:17;;;;;;;20.35;11.30;;;;;;;15.64;100.00;102334.06;7377358;19;20015;-73
2022/08/30 06:10:47;;;;;;;22.30;11.80;;;;;;;15.67;100.00;102334.09;7378678;19;20062;-71
2022/08/30 06:13:19;;;;;;;21.38;10.45;;;;;;;15.68;100.00;102335.88;7380008;19;20014;-71
2022/08/30 06:15:51;;;;;;;19.55;11.60;;;;;;;15.62;100.00;102330.50;7379031;19;20764;-71
2022/08/30 06:18:21;;;;;;;18.13;10.68;;;;;;;15.55;100.00;102333.91;7380592;19;20010;-75
2022/08/30 06:20:57;;;;;;;18.10;10.32;;;;;;;15.52;100.00;102334.75;7383252;19;20014;-75
2022/08/30 06:23:27;;;;;;;21.40;10.90;;;;;;;15.43;100.00;102336.34;7379230;19;20022;-75
2022/08/30 06:25:57;;;;;;;18.85;11.02;;;;;;;15.52;100.00;102325.94;7377306;19;20067;-76
2022/08/30 06:28:31;;;;;;;18.35;11.05;;;;;;;15.61;100.00;102334.91;7378152;19;20082;-76
2022/08/30 06:31:03;;;;;;;18.70;10.48;;;;;;;15.65;100.00;102339.38;7374864;19;20586;-75
2022/08/30 06:33:41;;;;;;;18.02;10.23;;;;;;;15.90;100.00;102324.78;7377341;19;20390;-77
2022/08/30 06:36:13;;;;;;;18.48;11.30;;;;;;;16.09;100.00;102331.22;7382974;19;20015;-75
2022/08/30 06:38:44;;;;;;;18.98;10.07;;;;;;;16.43;100.00;102324.63;7381812;19;20017;-76
2022/08/30 06:41:17;;;;;;;19.00;11.50;;;;;;;16.61;100.00;102329.28;7381401;19;20010;-75
2022/08/30 06:43:50;;;;;;;17.63;10.35;;;;;;;16.79;100.00;102336.56;7383239;19;20018;-75
2022/08/30 06:46:23;;;;;;;22.35;11.48;;;;;;;16.88;100.00;102326.06;7384009;19;20047;-76
2022/08/30 06:48:53;;;;;;;15.00;10.13;;;;;;;17.08;100.00;102332.47;7382267;19;20033;-77
2022/08/30 06:51:26;;;;;;;18.17;9.63;;;;;;;17.12;100.00;102330.72;7381081;19;20086;-75
2022/08/30 06:54:00;;;;;;;14.35;9.75;;;;;;;17.24;100.00;102326.44;7383164;19;20070;-75
2022/08/30 06:56:30;;;;;;;17.45;9.63;;;;;;;17.35;100.00;102323.00;7387022;19;20038;-73
2022/08/30 06:59:07;;;;;;;15.20;8.68;;;;;;;17.44;100.00;102321.31;7381880;19;20352;-72
2022/08/30 07:01:41;;;;;;;15.35;9.27;;;;;;;17.56;100.00;102316.09;7385427;19;20010;-73
2022/08/30 07:04:11;;;;;;;;;;;;;;;17.78;100.00;102309.19;7383617;19;20035;-71
2022/08/30 07:06:40;;;;;;;14.75;8.32;;;;;;;17.93;100.00;102313.72;7385064;19;19922;-75
2022/08/30 07:09:10;;;;;;;13.90;8.43;;;;;;;18.17;100.00;102315.63;7380951;19;20519;-76
2022/08/30 07:11:43;;;;;;;14.52;8.18;;;;;;;18.14;100.00;102316.50;7382607;19;20401;-76
2022/08/30 07:14:18;;;;;;;12.05;7.05;;;;;;;18.22;100.00;102321.84;7381199;19;20019;-77
2022/08/30 07:16:48;;;;;;;13.27;6.40;;;;;;;18.28;100.00;102319.22;7383947;19;20010;-76
2022/08/30 07:19:17;;;;;;;11.52;6.40;;;;;;;18.57;100.00;102322.91;7388929;19;20147;-76
2022/08/30 07:21:50;;;;;;;12.50;6.35;;;;;;;18.68;100.00;102315.00;7391569;19;20010;-76
2022/08/30 07:24:21;;;;;;;9.75;5.78;;;;;;;18.76;100.00;102315.88;7387910;19;20046;-75
2022/08/30 07:26:53;;;;;;;10.00;5.70;;;;;;;18.97;100.00;102328.34;7390082;19;20035;-76
2022/08/30 07:29:25;;;;;;;10.55;5.82;;;;;;;18.96;100.00;102318.59;7387103;19;20070;-77
2022/08/30 07:31:55;;;;;;;9.45;5.68;;;;;;;19.13;100.00;102331.91;7385555;19;20039;-76
2022/08/30 07:34:25;;;;;;;9.00;5.20;;;;;;;19.43;100.00;102331.06;7382344;19;20010;-77
2022/08/30 07:36:56;;;;;;;10.07;5.68;;;;;;;19.47;100.00;102328.41;7382247;19;20010;-77
2022/08/30 07:39:26;;;;;;;9.57;5.43;;;;;;;19.60;100.00;102337.31;7380006;19;20336;-77
2022/08/30 07:42:00;;;;;;;9.95;5.28;;;;;;;19.59;100.00;102330.22;7378320;19;20352;-76
2022/08/30 07:44:38;;;;;;;11.23;5.00;;;;;;;19.67;100.00;102340.88;7380790;19;20031;-76
2022/08/30 07:47:09;;;;;;;9.82;4.97;;;;;;;19.68;100.00;102330.22;7381658;19;20010;-76
2022/08/30 07:49:41;;;;;;;;;;;;;;;19.78;100.00;102336.38;7378395;19;20022;-72
2022/08/30 07:52:11;;;;;;;9.82;4.25;;;;;;;19.99;100.00;102338.13;7375499;19;19975;-71
2022/08/30 07:54:41;;;;;;;11.27;3.95;;;;;;;19.90;100.00;102337.25;7378185;19;20070;-72
2022/08/30 07:57:12;;;;;;;8.02;3.80;;;;;;;19.94;100.00;102338.13;7379904;19;20173;-72
2022/08/30 07:59:47;;;;;;;7.32;3.60;;;;;;;19.93;100.00;102337.25;7380052;19;20007;-72
2022/08/30 08:02:17;;;;;;;7.60;3.42;;;;;;;20.14;100.00;102340.75;7377611;19;20044;-72
2022/08/30 08:04:50;;;;;;;7.90;4.18;;;;;;;20.13;100.00;102344.31;7382278;19;20358;-73
2022/08/30 08:07:49;;;;;;;6.97;3.50;;;;;;;20.11;100.00;102346.09;7377964;19;20010;-73
2022/08/30 08:10:21;;;;;;;9.50;3.58;;;;;;;20.03;100.00;102339.91;7381056;19;20039;-73
2022/08/30 08:12:51;;;;;;;5.88;3.20;;;;;;;20.22;100.00;102347.84;7381538;19;20006;-74
2022/08/30 08:15:27;;;;;;;7.53;3.58;;;;;;;20.62;100.00;102345.06;7380509;19;20034;-74
2022/08/30 08:17:57;;;;;;;7.85;3.60;;;;;;;20.42;100.00;102345.16;7371707;19;20003;-76
2022/08/30 08:20:31;;;;;;;8.40;3.35;;;;;;;20.42;100.00;102341.59;7371374;19;20015;-73
2022/08/30 08:23:10;;;;;;;8.13;3.45;;;;;;;20.72;100.00;102346.81;7371716;19;20029;-73
2022/08/30 08:25:44;;;;;;;8.10;3.53;;;;;;;20.68;100.00;102341.50;7371335;19;20655;-73
2022/08/30 08:28:16;;;;;;;6.70;3.47;;;;;;;20.81;100.00;102349.41;7367621;19;20028;-74
2022/08/30 08:30:56;;;;;;;10.90;3.40;;;;;;;20.77;100.00;102336.13;7377634;19;20027;-77
2022/08/30 08:33:26;;;;;;;5.87;2.83;;;;;;;21.10;100.00;102327.88;7378682;19;20010;-77
2022/08/30 08:35:56;;;;;;;5.75;2.60;;;;;;;21.33;100.00;102342.88;7378799;19;20268;-76
2022/08/30 08:38:28;;;;;;;9.77;2.95;;;;;;;21.39;100.00;102337.50;7376377;19;20006;-76
2022/08/30 08:41:12;;;;;;;5.60;2.53;;;;;;;21.43;100.00;102341.91;7373448;19;20014;-73
2022/08/30 08:43:45;;;;;;;5.95;2.80;;;;;;;21.56;100.00;102337.38;7375739;19;20669;-74
2022/08/30 08:46:27;;;;;;;7.65;2.83;;;;;;;21.80;100.00;102338.03;7372591;19;20037;-73
2022/08/30 08:49:00;;;;;;;5.63;2.90;;;;;;;21.66;99.15;102339.94;7377156;19;20022;-73
2022/08/30 08:54:26;;;;;;;6.38;2.60;;;;;;;21.94;96.63;102335.19;7370698;19;20023;-76
2022/08/30 08:56:56;;;;;;;6.20;2.60;;;;;;;21.82;95.56;102336.22;7378042;19;20047;-77
2022/08/30 08:59:28;;;;;;;4.47;2.50;;;;;;;21.97;93.63;102324.47;7379089;19;20571;-72
2022/08/30 09:02:04;;;;;;;4.22;2.50;;;;;;;21.90;93.78;102333.44;7375728;19;20003;-78
2022/08/30 09:04:42;;;;;;;4.90;2.50;;;;;;;21.85;92.95;102332.63;7378509;19;20014;-78
2022/08/30 09:07:24;;;;;;;7.20;2.72;;;;;;;21.75;92.39;102323.84;7376046;19;20022;-76
2022/08/30 09:09:54;;;;;;;7.20;2.60;;;;;;;21.85;92.20;102335.28;7379537;19;20010;-77
2022/08/30 09:12:24;;;;;;;5.47;2.53;;;;;;;21.87;92.48;102333.47;7382634;19;20029;-78
2022/08/30 09:14:55;;;;;;;6.90;2.80;;;;;;;21.91;90.52;102332.56;7380564;19;20011;-76
2022/08/30 09:17:30;;;;;;;5.07;2.40;;;;;;;21.91;90.76;102334.34;7380148;19;20014;-76
2022/08/30 09:20:01;;;;;;;5.60;2.60;;;;;;;21.85;88.56;102333.50;7380888;19;20015;-77
2022/08/30 09:22:38;;;;;;;4.75;2.45;;;;;;;22.28;88.14;102325.06;7381554;19;20290;-77
2022/08/30 09:25:22;;;;;;;6.32;2.53;;;;;;;22.32;85.51;102326.78;7380258;19;20010;-73
2022/08/30 09:27:53;;;;;;;5.55;2.53;;;;;;;22.66;83.44;102329.03;7380372;19;20050;-74
2022/08/30 09:30:25;;;;;;;4.63;2.30;;;;;;;22.66;81.24;102339.75;7385167;19;20020;-74
2022/08/30 09:33:04;;;;;;;7.07;2.80;;;;;;;22.69;80.79;102342.38;7383207;19;20011;-73
2022/08/30 09:35:43;;;;;;;5.30;2.63;;;;;;;22.68;80.44;102343.28;7385230;19;20175;-72
2022/08/30 09:38:19;;;;;;;5.82;2.40;;;;;;;22.59;79.86;102346.06;7384102;19;20253;-73
2022/08/30 09:40:53;;;;;;;5.25;2.45;;;;;;;22.60;80.25;102337.16;7383394;19;20016;-73
2022/08/30 09:43:27;;;;;;;5.28;2.65;;;;;;;22.87;81.25;102346.63;7380456;19;20010;-73
2022/08/30 09:46:29;;;;;;;6.22;2.60;;;;;;;23.05;80.95;102347.22;7381243;19;20092;-73
2022/08/30 09:53:21;;;;;;;5.20;2.80;;;;;;;22.87;80.92;102342.16;7374734;19;20024;-73
2022/08/30 09:56:19;;;;;;;5.63;2.45;;;;;;;23.09;78.96;102343.59;7376442;19;20057;-73
2022/08/30 09:59:02;;;;;;;3.30;2.47;;;;;;;23.09;78.91;102351.63;7383490;19;20015;-74
2022/08/30 10:01:41;;;;;;;3.63;2.03;;;;;;;23.05;72.41;102347.22;7382465;19;20048;-74
2022/08/30 10:04:20;;;;;;;5.50;2.45;;;;;;;23.13;72.29;102344.44;7387204;19;20010;-74
2022/08/30 10:06:59;;;;;;;6.40;2.20;;;;;;;22.80;71.74;102345.81;7382462;19;20015;-76
2022/08/30 10:09:42;;;;;;;4.18;2.35;;;;;;;23.04;72.78;102342.78;7385381;19;20042;-74
2022/08/30 10:12:18;;;;;;;5.43;2.30;;;;;;;22.98;73.31;102337.50;7385457;19;20011;-76
2022/08/30 10:14:56;;;;;;;5.28;2.85;;;;;;;22.88;74.51;102333.19;7386231;19;20015;-74
2022/08/30 10:17:43;;;;;;;4.97;2.75;;;;;;;22.97;73.72;102335.75;7382564;19;20019;-73
2022/08/30 10:20:22;;;;;;;5.05;2.55;;;;;;;23.11;73.15;102340.91;7383371;19;20015;-73
2022/08/30 10:23:01;;;;;;;5.45;2.20;;;;;;;23.15;70.64;102338.16;7385300;19;20011;-74
2022/08/30 10:25:42;;;;;;;4.50;2.22;;;;;;;23.18;70.77;102334.53;7382641;19;20022;-74
2022/08/30 10:28:29;;;;;;;6.22;2.42;;;;;;;23.51;70.49;102334.91;7380405;19;20011;-73
2022/08/30 10:31:29;;;;;;;6.10;2.30;;;;;;;23.62;72.79;102339.22;7382214;19;20007;-73
2022/08/30 10:34:18;;;;;;;4.97;2.55;;;;;;;23.70;70.35;102339.97;7384514;19;20006;-74
2022/08/30 10:37:04;;;;;;;8.18;3.13;;;;;;;23.76;71.08;102330.94;7385501;19;20059;-75
2022/08/30 10:39:45;;;;;;;8.10;2.47;;;;;;;23.90;68.33;102336.94;7382784;19;20018;-75
2022/08/30 10:42:23;;;;;;;5.88;2.40;;;;;;;23.95;68.81;102343.06;7376092;19;20126;-74
2022/08/30 10:45:05;;;;;;;8.13;2.78;;;;;;;23.90;68.47;102331.56;7379889;19;20007;-74
2022/08/30 10:47:42;;;;;;;6.35;2.80;;;;;;;23.80;68.74;102341.56;7386481;19;20011;-73
2022/08/30 10:50:15;;;;;;;6.47;2.40;;;;;;;24.09;67.19;102329.41;7390223;19;20015;-73
2022/08/30 10:52:54;;;;;;;7.55;2.38;;;;;;;24.16;65.77;102335.53;7383750;19;20010;-73
2022/08/30 10:59:18;;;;;;;6.43;2.90;;;;;;;24.36;64.09;102339.59;7376791;19;20025;-73
2022/08/30 11:02:05;;;;;;;5.85;2.45;;;;;;;24.25;64.15;102333.53;7383832;19;20022;-74
2022/08/30 11:04:56;;;;;;;8.13;2.33;;;;;;;24.27;61.56;102334.44;7383282;19;20022;-74
2022/08/30 11:08:08;;;;;;;6.68;2.22;;;;;;;24.31;60.86;102336.13;7381913;19;20003;-73
2022/08/30 11:11:39;;;;;;;4.45;2.15;;;;;;;24.40;60.48;102335.94;7375583;19;20010;-73
2022/08/30 11:14:16;;;;;;;5.90;2.10;;;;;;;24.47;60.11;102331.34;7374726;19;20021;-73
2022/08/30 11:16:50;;;;;;;5.40;2.38;;;;;;;24.30;59.06;102334.38;7376144;19;20104;-76
2022/08/30 11:19:27;;;;;;;6.55;2.50;;;;;;;24.38;59.37;102326.16;7382091;19;20014;-76
2022/08/30 11:22:15;;;;;;;4.47;2.30;;;;;;;24.22;58.32;102333.59;7377303;19;20002;-75
2022/08/30 11:25:04;;;;;;;4.10;1.88;;;;;;;24.48;57.92;102333.09;7377865;19;20466;-75
2022/08/30 11:27:47;;;;;;;4.47;2.15;;;;;;;24.43;57.41;102325.16;7377959;19;20014;-76
2022/08/30 11:30:53;;;;;;;6.10;2.40;;;;;;;24.48;55.39;102326.88;7377262;19;20007;-76
2022/08/30 11:33:43;;;;;;;6.85;2.15;;;;;;;24.32;54.77;102327.19;7376732;19;20011;-74
2022/08/30 11:36:52;;;;;;;5.20;2.20;;;;;;;24.59;52.89;102330.19;7379100;19;20118;-73
2022/08/30 11:39:59;;;;;;;5.38;2.20;;;;;;;24.58;54.28;102328.44;7374298;19;20013;-72
2022/08/30 11:42:40;;;;;;;9.73;1.92;;;;;;;24.68;52.05;102328.19;7376069;19;20074;-76
2022/08/30 11:45:50;;;;;;;5.80;2.15;;;;;;;24.67;52.00;102317.50;7374141;19;20015;-76
2022/08/30 11:48:53;;;;;;;3.78;1.92;;;;;;;24.60;52.63;102324.81;7372648;19;20010;-75
2022/08/30 11:51:50;;;;;;;3.58;1.80;;;;;;;24.32;52.21;102310.22;7369943;19;20017;-76
2022/08/30 11:54:52;;;;;;;4.93;2.17;;;;;;;24.44;53.37;102321.56;7372602;19;20632;-75
2022/08/30 11:57:32;;;;;;;4.85;2.20;;;;;;;24.58;53.62;102317.72;7371641;19;20010;-75
2022/08/30 12:00:10;;;;;;;4.05;2.08;;;;;;;24.58;54.06;102313.22;7375610;19;20006;-74
2022/08/30 12:02:49;;;;;;;4.30;2.00;;;;;;;24.61;54.46;102306.91;7378521;19;20332;-76
2022/08/30 12:05:57;;;;;;;4.28;2.03;;;;;;;24.85;55.01;102305.47;7374937;19;20056;-74